New Orleans, LA (70145)

7:34 PM CDT on July 04, 2015 (GMT -0500)
French Quarter | | Change Station
CLOSE
Current Station
Personal Weather Station
Location: New Orleans, LA
Elevation: 30 ft
Nearby Weather Stations

Elev 30 ft 29.96 °N, 90.07 °W | Updated 8 minutes ago

Partly Cloudy
Partly Cloudy
84.7 °F
Feels Like 91 °F
N
1.7
Wind Variable Wind from WNW

Today
High -- | Low -- °F
--% Chance of Precip.
Yesterday
High -- | Low -- °F
Precip. -- in
6:03 AM 8:05 PM
Waning Gibbous, 89% visible
Pressure 30.03 in
Visibility 10.0 miles
Clouds Clear
Heat Index 91 °F
Dew Point 72 °F
Humidity 67%
Rainfall 0.00 in
Snow Depth Not available.
UV 1 out of 12
Pollen 2.20 out of 12
Air Quality Not available.
Flu Activity Not available.
METAR KNEW 042353Z 36007KT 10SM CLR 30/22 A3005 RMK AO2 SLP168 T03000222 10350 20300 50002

More Conditions Fewer Conditions

Pressure 30.03 in
Visibility 10.0 miles
Clouds Clear
Heat Index 91 °F
Dew Point 72 °F
Humidity 67%
Rainfall 0.00 in
Snow Depth Not available.
UV 1 out of 12
Pollen 2.20 out of 12
Air Quality Not available.
Flu Activity Not available.
METAR KNEW 042353Z 36007KT 10SM CLR 30/22 A3005 RMK AO2 SLP168 T03000222 10350 20300 50002

More Conditions Fewer Conditions

10-Day Weather Forecast

×

Almanac

Astronomy

Jul. 04, 2015 Rise Set
Actual Time
Civil Twilight
Nautical Twilight
Astronomical Twilight
Moon
Length of Visible Light
Length of Day
Tomorrow will be .
, % of the Moon is Illuminated

Today's Extremes

State Highs State Lows

Community

WunderPhotos

Upload Photos

1,835,120 photos uploaded!

WunderBlogs® & News

Nearby

Air Quality

  Air Quality AQ Index Pollutant
Not available.

Snow Depth

Station Depth Elevation

Earthquake Activity

City Distance Mag. Time & Date
Minimum magnitude displayed is 2.5.

Coastal Water Temperatures

Place Temperature

Stations

Nearby Weather Stations

Station Location Temp. Windchill Dew Point Humidity Wind Precip. Elev Updated Type